sensor_id;sensor_type;location;lat;lon;timestamp;temperature;humidity
27270;DHT22;14769;56.934;24.176;2022-09-27T00:00:46;10.50;99.90
27270;DHT22;14769;56.934;24.176;2022-09-27T00:01:49;10.50;99.90
27270;DHT22;14769;56.934;24.176;2022-09-27T00:02:52;10.50;99.90
27270;DHT22;14769;56.934;24.176;2022-09-27T00:03:54;10.50;99.90
27270;DHT22;14769;56.934;24.176;2022-09-27T00:04:56;10.40;99.90
27270;DHT22;14769;56.934;24.176;2022-09-27T00:06:29;10.40;99.90
27270;DHT22;14769;56.934;24.176;2022-09-27T00:07:33;10.40;99.90
27270;DHT22;14769;56.934;24.176;2022-09-27T00:08:36;10.40;99.90
27270;DHT22;14769;56.934;24.176;2022-09-27T00:09:38;10.30;99.90
27270;DHT22;14769;56.934;24.176;2022-09-27T00:10:40;10.30;99.90
27270;DHT22;14769;56.934;24.176;2022-09-27T00:11:42;10.40;99.90
27270;DHT22;14769;56.934;24.176;2022-09-27T00:12:45;10.40;99.90
27270;DHT22;14769;56.934;24.176;2022-09-27T00:13:47;10.30;99.90
27270;DHT22;14769;56.934;24.176;2022-09-27T00:14:49;10.40;99.90
27270;DHT22;14769;56.934;24.176;2022-09-27T00:16:02;10.30;99.90
27270;DHT22;14769;56.934;24.176;2022-09-27T00:17:08;10.40;99.90
27270;DHT22;14769;56.934;24.176;2022-09-27T00:18:12;10.30;99.90
27270;DHT22;14769;56.934;24.176;2022-09-27T00:19:16;10.30;99.90
27270;DHT22;14769;56.934;24.176;2022-09-27T00:20:23;10.30;99.90
27270;DHT22;14769;56.934;24.176;2022-09-27T00:21:25;10.30;99.90
27270;DHT22;14769;56.934;24.176;2022-09-27T00:22:30;10.30;99.90
27270;DHT22;14769;56.934;24.176;2022-09-27T00:23:36;10.30;99.90
27270;DHT22;14769;56.934;24.176;2022-09-27T00:24:41;10.30;99.90
27270;DHT22;14769;56.934;24.176;2022-09-27T00:25:54;10.30;99.90
27270;DHT22;14769;56.934;24.176;2022-09-27T00:26:57;10.30;99.90
27270;DHT22;14769;56.934;24.176;2022-09-27T00:27:59;10.30;99.90
27270;DHT22;14769;56.934;24.176;2022-09-27T00:29:02;10.20;99.90
27270;DHT22;14769;56.934;24.176;2022-09-27T00:30:05;10.20;99.90
27270;DHT22;14769;56.934;24.176;2022-09-27T00:31:17;10.30;99.90
27270;DHT22;14769;56.934;24.176;2022-09-27T00:32:23;10.30;99.90
27270;DHT22;14769;56.934;24.176;2022-09-27T00:33:26;10.20;99.90
27270;DHT22;14769;56.934;24.176;2022-09-27T00:34:28;10.20;99.90
27270;DHT22;14769;56.934;24.176;2022-09-27T00:35:30;10.20;99.90
27270;DHT22;14769;56.934;24.176;2022-09-27T00:36:33;10.20;99.90
27270;DHT22;14769;56.934;24.176;2022-09-27T00:37:35;10.20;99.90
27270;DHT22;14769;56.934;24.176;2022-09-27T00:38:38;10.20;99.90
27270;DHT22;14769;56.934;24.176;2022-09-27T00:39:40;10.20;99.90
27270;DHT22;14769;56.934;24.176;2022-09-27T00:40:43;10.20;99.90
27270;DHT22;14769;56.934;24.176;2022-09-27T00:41:45;10.10;99.90
27270;DHT22;14769;56.934;24.176;2022-09-27T00:42:48;10.20;99.90
27270;DHT22;14769;56.934;24.176;2022-09-27T00:43:52;10.10;99.90
27270;DHT22;14769;56.934;24.176;2022-09-27T00:45:17;10.10;99.90
27270;DHT22;14769;56.934;24.176;2022-09-27T00:46:41;10.10;99.90
27270;DHT22;14769;56.934;24.176;2022-09-27T00:47:52;10.10;99.90
27270;DHT22;14769;56.934;24.176;2022-09-27T00:49:09;10.10;99.90
27270;DHT22;14769;56.934;24.176;2022-09-27T00:51:24;10.00;99.90
27270;DHT22;14769;56.934;24.176;2022-09-27T00:52:42;10.00;99.90
27270;DHT22;14769;56.934;24.176;2022-09-27T00:53:50;10.00;99.90
27270;DHT22;14769;56.934;24.176;2022-09-27T00:54:59;10.00;99.90
27270;DHT22;14769;56.934;24.176;2022-09-27T00:56:07;9.90;99.90
27270;DHT22;14769;56.934;24.176;2022-09-27T00:57:10;9.90;99.90
27270;DHT22;14769;56.934;24.176;2022-09-27T00:58:14;9.90;99.90
27270;DHT22;14769;56.934;24.176;2022-09-27T00:59:27;9.90;99.90
27270;DHT22;14769;56.934;24.176;2022-09-27T01:00:31;9.90;99.90
27270;DHT22;14769;56.934;24.176;2022-09-27T01:01:36;9.90;99.90
27270;DHT22;14769;56.934;24.176;2022-09-27T01:02:44;9.90;99.90
27270;DHT22;14769;56.934;24.176;2022-09-27T01:04:05;9.90;99.90
27270;DHT22;14769;56.934;24.176;2022-09-27T01:05:09;9.80;99.90
27270;DHT22;14769;56.934;24.176;2022-09-27T01:06:12;9.80;99.90
27270;DHT22;14769;56.934;24.176;2022-09-27T01:07:15;9.80;99.90
27270;DHT22;14769;56.934;24.176;2022-09-27T01:08:17;9.80;99.90
27270;DHT22;14769;56.934;24.176;2022-09-27T01:09:19;9.80;99.90
27270;DHT22;14769;56.934;24.176;2022-09-27T01:10:22;9.70;99.90
27270;DHT22;14769;56.934;24.176;2022-09-27T01:15:32;9.70;99.90
27270;DHT22;14769;56.934;24.176;2022-09-27T01:21:23;9.60;99.90
27270;DHT22;14769;56.934;24.176;2022-09-27T01:27:06;9.40;99.90
27270;DHT22;14769;56.934;24.176;2022-09-27T01:28:30;9.40;99.90
27270;DHT22;14769;56.934;24.176;2022-09-27T01:32:46;9.40;99.90
27270;DHT22;14769;56.934;24.176;2022-09-27T01:34:12;9.40;99.90
27270;DHT22;14769;56.934;24.176;2022-09-27T01:39:23;9.40;99.90
27270;DHT22;14769;56.934;24.176;2022-09-27T01:40:46;9.40;99.90
27270;DHT22;14769;56.934;24.176;2022-09-27T01:41:55;9.40;99.90
27270;DHT22;14769;56.934;24.176;2022-09-27T01:43:08;9.40;99.90
27270;DHT22;14769;56.934;24.176;2022-09-27T01:44:27;9.40;99.90
27270;DHT22;14769;56.934;24.176;2022-09-27T01:45:46;9.40;99.90
27270;DHT22;14769;56.934;24.176;2022-09-27T01:46:54;9.40;99.90
27270;DHT22;14769;56.934;24.176;2022-09-27T01:48:06;9.40;99.90
27270;DHT22;14769;56.934;24.176;2022-09-27T01:49:25;9.40;99.90
27270;DHT22;14769;56.934;24.176;2022-09-27T01:50:41;9.40;99.90
27270;DHT22;14769;56.934;24.176;2022-09-27T01:51:52;9.40;99.90
27270;DHT22;14769;56.934;24.176;2022-09-27T01:54:23;9.30;99.90
27270;DHT22;14769;56.934;24.176;2022-09-27T01:55:31;9.30;99.90
27270;DHT22;14769;56.934;24.176;2022-09-27T01:56:48;9.30;99.90
27270;DHT22;14769;56.934;24.176;2022-09-27T01:58:04;9.30;99.90
27270;DHT22;14769;56.934;24.176;2022-09-27T01:59:13;9.30;99.90
27270;DHT22;14769;56.934;24.176;2022-09-27T02:00:19;9.20;99.90
27270;DHT22;14769;56.934;24.176;2022-09-27T02:01:24;9.20;99.90
27270;DHT22;14769;56.934;24.176;2022-09-27T02:02:32;9.20;99.90
27270;DHT22;14769;56.934;24.176;2022-09-27T02:03:40;9.20;99.90
27270;DHT22;14769;56.934;24.176;2022-09-27T02:04:47;9.30;99.90
27270;DHT22;14769;56.934;24.176;2022-09-27T02:05:53;9.20;99.90
27270;DHT22;14769;56.934;24.176;2022-09-27T02:07:07;9.30;99.90
27270;DHT22;14769;56.934;24.176;2022-09-27T02:08:40;9.20;99.90
27270;DHT22;14769;56.934;24.176;2022-09-27T02:09:59;9.20;99.90
27270;DHT22;14769;56.934;24.176;2022-09-27T02:11:07;9.20;99.90
27270;DHT22;14769;56.934;24.176;2022-09-27T02:12:13;9.20;99.90
27270;DHT22;14769;56.934;24.176;2022-09-27T02:13:22;9.20;99.90
27270;DHT22;14769;56.934;24.176;2022-09-27T02:14:52;9.20;99.90
27270;DHT22;14769;56.934;24.176;2022-09-27T02:18:17;9.20;99.90
27270;DHT22;14769;56.934;24.176;2022-09-27T02:20:37;9.10;99.90
27270;DHT22;14769;56.934;24.176;2022-09-27T02:22:00;9.10;99.90
27270;DHT22;14769;56.934;24.176;2022-09-27T02:23:21;9.10;99.90
27270;DHT22;14769;56.934;24.176;2022-09-27T02:24:32;9.10;99.90
27270;DHT22;14769;56.934;24.176;2022-09-27T02:25:43;9.10;99.90
27270;DHT22;14769;56.934;24.176;2022-09-27T02:26:58;9.10;99.90
27270;DHT22;14769;56.934;24.176;2022-09-27T02:29:23;9.10;99.90
27270;DHT22;14769;56.934;24.176;2022-09-27T02:30:28;9.10;99.90
27270;DHT22;14769;56.934;24.176;2022-09-27T02:31:30;9.10;99.90
27270;DHT22;14769;56.934;24.176;2022-09-27T02:32:33;9.10;99.90
27270;DHT22;14769;56.934;24.176;2022-09-27T02:34:03;9.10;99.90
27270;DHT22;14769;56.934;24.176;2022-09-27T02:35:31;9.10;99.90
27270;DHT22;14769;56.934;24.176;2022-09-27T02:36:37;9.10;99.90
27270;DHT22;14769;56.934;24.176;2022-09-27T02:37:39;9.10;99.90
27270;DHT22;14769;56.934;24.176;2022-09-27T02:38:43;9.10;99.90
27270;DHT22;14769;56.934;24.176;2022-09-27T02:39:45;9.00;99.90
27270;DHT22;14769;56.934;24.176;2022-09-27T02:40:50;9.10;99.90
27270;DHT22;14769;56.934;24.176;2022-09-27T02:41:53;9.10;99.90
27270;DHT22;14769;56.934;24.176;2022-09-27T02:43:02;9.10;99.90
27270;DHT22;14769;56.934;24.176;2022-09-27T02:44:10;9.10;99.90
27270;DHT22;14769;56.934;24.176;2022-09-27T02:45:16;9.10;99.90
27270;DHT22;14769;56.934;24.176;2022-09-27T02:49:45;9.10;99.90
27270;DHT22;14769;56.934;24.176;2022-09-27T02:51:12;9.00;99.90
27270;DHT22;14769;56.934;24.176;2022-09-27T02:59:20;8.90;99.90
27270;DHT22;14769;56.934;24.176;2022-09-27T03:01:17;8.90;99.90
27270;DHT22;14769;56.934;24.176;2022-09-27T03:02:24;8.90;99.90
27270;DHT22;14769;56.934;24.176;2022-09-27T03:03:36;8.80;99.90
27270;DHT22;14769;56.934;24.176;2022-09-27T03:04:49;8.80;99.90
27270;DHT22;14769;56.934;24.176;2022-09-27T03:06:09;8.80;99.90
27270;DHT22;14769;56.934;24.176;2022-09-27T03:07:12;8.80;99.90
27270;DHT22;14769;56.934;24.176;2022-09-27T03:08:15;8.80;99.90
27270;DHT22;14769;56.934;24.176;2022-09-27T03:09:27;8.80;99.90
27270;DHT22;14769;56.934;24.176;2022-09-27T03:10:31;8.90;99.90
27270;DHT22;14769;56.934;24.176;2022-09-27T03:11:33;8.90;99.90
27270;DHT22;14769;56.934;24.176;2022-09-27T03:12:35;8.80;99.90
27270;DHT22;14769;56.934;24.176;2022-09-27T03:13:37;8.90;99.90
27270;DHT22;14769;56.934;24.176;2022-09-27T03:14:59;8.90;99.90
27270;DHT22;14769;56.934;24.176;2022-09-27T03:16:02;8.80;99.90
27270;DHT22;14769;56.934;24.176;2022-09-27T03:17:04;8.90;99.90
27270;DHT22;14769;56.934;24.176;2022-09-27T03:18:06;8.80;99.90
27270;DHT22;14769;56.934;24.176;2022-09-27T03:19:08;8.80;99.90
27270;DHT22;14769;56.934;24.176;2022-09-27T03:20:11;8.80;99.90
27270;DHT22;14769;56.934;24.176;2022-09-27T03:21:13;8.80;99.90
27270;DHT22;14769;56.934;24.176;2022-09-27T03:22:15;8.80;99.90
27270;DHT22;14769;56.934;24.176;2022-09-27T03:23:18;8.80;99.90
27270;DHT22;14769;56.934;24.176;2022-09-27T03:24:20;8.80;99.90
27270;DHT22;14769;56.934;24.176;2022-09-27T03:25:22;8.80;99.90
27270;DHT22;14769;56.934;24.176;2022-09-27T03:26:24;8.80;99.90
27270;DHT22;14769;56.934;24.176;2022-09-27T03:27:27;8.80;99.90
27270;DHT22;14769;56.934;24.176;2022-09-27T03:28:33;8.80;99.90
27270;DHT22;14769;56.934;24.176;2022-09-27T03:29:38;8.70;99.90
27270;DHT22;14769;56.934;24.176;2022-09-27T03:30:49;8.70;99.90
27270;DHT22;14769;56.934;24.176;2022-09-27T03:31:57;8.70;99.90
27270;DHT22;14769;56.934;24.176;2022-09-27T03:33:00;8.70;99.90
27270;DHT22;14769;56.934;24.176;2022-09-27T03:34:04;8.70;99.90
27270;DHT22;14769;56.934;24.176;2022-09-27T03:35:08;8.60;99.90
27270;DHT22;14769;56.934;24.176;2022-09-27T03:36:18;8.70;99.90
27270;DHT22;14769;56.934;24.176;2022-09-27T03:37:24;8.60;99.90
27270;DHT22;14769;56.934;24.176;2022-09-27T03:38:39;8.60;99.90
27270;DHT22;14769;56.934;24.176;2022-09-27T03:39:45;8.60;99.90
27270;DHT22;14769;56.934;24.176;2022-09-27T03:40:51;8.60;99.90
27270;DHT22;14769;56.934;24.176;2022-09-27T03:41:54;8.60;99.90
27270;DHT22;14769;56.934;24.176;2022-09-27T03:42:58;8.60;99.90
27270;DHT22;14769;56.934;24.176;2022-09-27T03:44:02;8.60;99.90
27270;DHT22;14769;56.934;24.176;2022-09-27T03:45:09;8.60;99.90
27270;DHT22;14769;56.934;24.176;2022-09-27T03:46:11;8.50;99.90
27270;DHT22;14769;56.934;24.176;2022-09-27T03:47:15;8.50;99.90
27270;DHT22;14769;56.934;24.176;2022-09-27T03:48:17;8.50;99.90
27270;DHT22;14769;56.934;24.176;2022-09-27T03:49:38;8.50;99.90
27270;DHT22;14769;56.934;24.176;2022-09-27T03:51:26;8.50;99.90
27270;DHT22;14769;56.934;24.176;2022-09-27T03:52:35;8.50;99.90
27270;DHT22;14769;56.934;24.176;2022-09-27T03:53:41;8.40;99.90
27270;DHT22;14769;56.934;24.176;2022-09-27T03:54:44;8.40;99.90
27270;DHT22;14769;56.934;24.176;2022-09-27T03:55:48;8.40;99.90
27270;DHT22;14769;56.934;24.176;2022-09-27T03:57:02;8.40;99.90
27270;DHT22;14769;56.934;24.176;2022-09-27T03:58:07;8.40;99.90
27270;DHT22;14769;56.934;24.176;2022-09-27T03:59:11;8.40;99.90
27270;DHT22;14769;56.934;24.176;2022-09-27T04:00:16;8.40;99.90
27270;DHT22;14769;56.934;24.176;2022-09-27T04:01:22;8.40;99.90
27270;DHT22;14769;56.934;24.176;2022-09-27T04:02:26;8.40;99.90
27270;DHT22;14769;56.934;24.176;2022-09-27T04:03:36;8.40;99.90
27270;DHT22;14769;56.934;24.176;2022-09-27T04:04:39;8.40;99.90
27270;DHT22;14769;56.934;24.176;2022-09-27T04:05:42;8.40;99.90
27270;DHT22;14769;56.934;24.176;2022-09-27T04:06:43;8.40;99.90
27270;DHT22;14769;56.934;24.176;2022-09-27T04:07:47;8.40;99.90
27270;DHT22;14769;56.934;24.176;2022-09-27T04:08:52;8.40;99.90
27270;DHT22;14769;56.934;24.176;2022-09-27T04:09:55;8.30;99.90
27270;DHT22;14769;56.934;24.176;2022-09-27T04:10:58;8.30;99.90
27270;DHT22;14769;56.934;24.176;2022-09-27T04:12:00;8.30;99.90
27270;DHT22;14769;56.934;24.176;2022-09-27T04:13:03;8.30;99.90
27270;DHT22;14769;56.934;24.176;2022-09-27T04:14:11;8.20;99.90
27270;DHT22;14769;56.934;24.176;2022-09-27T04:15:16;8.20;99.90
27270;DHT22;14769;56.934;24.176;2022-09-27T04:16:22;8.20;99.90
27270;DHT22;14769;56.934;24.176;2022-09-27T04:17:26;8.20;99.90
27270;DHT22;14769;56.934;24.176;2022-09-27T04:18:30;8.10;99.90
27270;DHT22;14769;56.934;24.176;2022-09-27T04:19:32;8.20;99.90
27270;DHT22;14769;56.934;24.176;2022-09-27T04:21:04;8.10;99.90
27270;DHT22;14769;56.934;24.176;2022-09-27T04:22:14;8.10;99.90
27270;DHT22;14769;56.934;24.176;2022-09-27T04:23:24;8.00;99.90
27270;DHT22;14769;56.934;24.176;2022-09-27T04:24:33;8.00;99.90
27270;DHT22;14769;56.934;24.176;2022-09-27T04:25:35;8.00;99.90
27270;DHT22;14769;56.934;24.176;2022-09-27T04:26:46;8.00;99.90
27270;DHT22;14769;56.934;24.176;2022-09-27T04:27:59;8.00;99.90
27270;DHT22;14769;56.934;24.176;2022-09-27T04:29:14;8.00;99.90
27270;DHT22;14769;56.934;24.176;2022-09-27T04:30:38;8.00;99.90
27270;DHT22;14769;56.934;24.176;2022-09-27T04:31:49;8.00;99.90
27270;DHT22;14769;56.934;24.176;2022-09-27T04:32:58;8.00;99.90
27270;DHT22;14769;56.934;24.176;2022-09-27T04:34:04;7.90;99.90
27270;DHT22;14769;56.934;24.176;2022-09-27T04:35:10;7.90;99.90
27270;DHT22;14769;56.934;24.176;2022-09-27T04:36:32;8.00;99.90
27270;DHT22;14769;56.934;24.176;2022-09-27T04:37:34;7.90;99.90
27270;DHT22;14769;56.934;24.176;2022-09-27T04:38:37;8.00;99.90
27270;DHT22;14769;56.934;24.176;2022-09-27T04:39:40;8.00;99.90
27270;DHT22;14769;56.934;24.176;2022-09-27T04:40:42;8.00;99.90
27270;DHT22;14769;56.934;24.176;2022-09-27T04:41:44;8.00;99.90
27270;DHT22;14769;56.934;24.176;2022-09-27T04:42:47;8.00;99.90
27270;DHT22;14769;56.934;24.176;2022-09-27T04:43:50;8.00;99.90
27270;DHT22;14769;56.934;24.176;2022-09-27T04:44:59;8.00;99.90
27270;DHT22;14769;56.934;24.176;2022-09-27T04:46:01;8.10;99.90
27270;DHT22;14769;56.934;24.176;2022-09-27T04:47:03;8.10;99.90
27270;DHT22;14769;56.934;24.176;2022-09-27T04:48:05;8.10;99.90
27270;DHT22;14769;56.934;24.176;2022-09-27T04:49:07;8.10;99.90
27270;DHT22;14769;56.934;24.176;2022-09-27T04:50:10;8.10;99.90
27270;DHT22;14769;56.934;24.176;2022-09-27T04:51:13;8.10;99.90
27270;DHT22;14769;56.934;24.176;2022-09-27T04:52:21;8.20;99.90
27270;DHT22;14769;56.934;24.176;2022-09-27T04:53:23;8.10;99.90
27270;DHT22;14769;56.934;24.176;2022-09-27T04:54:25;8.20;99.90
27270;DHT22;14769;56.934;24.176;2022-09-27T04:55:27;8.20;99.90
27270;DHT22;14769;56.934;24.176;2022-09-27T04:56:29;8.20;99.90
27270;DHT22;14769;56.934;24.176;2022-09-27T04:57:30;8.20;99.90
27270;DHT22;14769;56.934;24.176;2022-09-27T04:58:34;8.20;99.90
27270;DHT22;14769;56.934;24.176;2022-09-27T04:59:36;8.20;99.90
27270;DHT22;14769;56.934;24.176;2022-09-27T05:00:38;8.20;99.90
27270;DHT22;14769;56.934;24.176;2022-09-27T05:01:41;8.20;99.90
27270;DHT22;14769;56.934;24.176;2022-09-27T05:02:46;8.30;99.90
27270;DHT22;14769;56.934;24.176;2022-09-27T05:03:49;8.30;99.90
27270;DHT22;14769;56.934;24.176;2022-09-27T05:04:53;8.30;99.90
27270;DHT22;14769;56.934;24.176;2022-09-27T05:06:03;8.30;99.90
27270;DHT22;14769;56.934;24.176;2022-09-27T05:07:05;8.30;99.90
27270;DHT22;14769;56.934;24.176;2022-09-27T05:08:07;8.30;99.90
27270;DHT22;14769;56.934;24.176;2022-09-27T05:09:09;8.40;99.90
27270;DHT22;14769;56.934;24.176;2022-09-27T05:10:11;8.40;99.90
27270;DHT22;14769;56.934;24.176;2022-09-27T05:11:15;8.40;99.90
27270;DHT22;14769;56.934;24.176;2022-09-27T05:12:18;8.40;99.90
27270;DHT22;14769;56.934;24.176;2022-09-27T05:13:21;8.40;99.90
27270;DHT22;14769;56.934;24.176;2022-09-27T05:14:23;8.40;99.90
27270;DHT22;14769;56.934;24.176;2022-09-27T05:15:26;8.40;99.90
27270;DHT22;14769;56.934;24.176;2022-09-27T05:16:28;8.40;99.90
27270;DHT22;14769;56.934;24.176;2022-09-27T05:17:34;8.50;99.90
27270;DHT22;14769;56.934;24.176;2022-09-27T05:18:37;8.50;99.90
27270;DHT22;14769;56.934;24.176;2022-09-27T05:19:39;8.50;99.90
27270;DHT22;14769;56.934;24.176;2022-09-27T05:20:41;8.50;99.90
27270;DHT22;14769;56.934;24.176;2022-09-27T05:21:46;8.50;99.90
27270;DHT22;14769;56.934;24.176;2022-09-27T05:22:49;8.60;99.90
27270;DHT22;14769;56.934;24.176;2022-09-27T05:23:51;8.60;99.90
27270;DHT22;14769;56.934;24.176;2022-09-27T05:24:53;8.60;99.90
27270;DHT22;14769;56.934;24.176;2022-09-27T05:26:03;8.60;99.90
27270;DHT22;14769;56.934;24.176;2022-09-27T05:27:06;8.60;99.90
27270;DHT22;14769;56.934;24.176;2022-09-27T05:28:10;8.60;99.90
27270;DHT22;14769;56.934;24.176;2022-09-27T05:29:13;8.60;99.90
27270;DHT22;14769;56.934;24.176;2022-09-27T05:30:17;8.70;99.90
27270;DHT22;14769;56.934;24.176;2022-09-27T05:31:21;8.70;99.90
27270;DHT22;14769;56.934;24.176;2022-09-27T05:32:25;8.70;99.90
27270;DHT22;14769;56.934;24.176;2022-09-27T05:33:27;8.70;99.90
27270;DHT22;14769;56.934;24.176;2022-09-27T05:34:29;8.80;99.90
27270;DHT22;14769;56.934;24.176;2022-09-27T05:35:33;8.70;99.90
27270;DHT22;14769;56.934;24.176;2022-09-27T05:36:37;8.80;99.90
27270;DHT22;14769;56.934;24.176;2022-09-27T05:37:39;8.80;99.90
27270;DHT22;14769;56.934;24.176;2022-09-27T05:38:55;8.90;99.90
27270;DHT22;14769;56.934;24.176;2022-09-27T05:39:58;8.90;99.90
27270;DHT22;14769;56.934;24.176;2022-09-27T05:41:00;8.90;99.90
27270;DHT22;14769;56.934;24.176;2022-09-27T05:42:02;8.90;99.90
27270;DHT22;14769;56.934;24.176;2022-09-27T05:43:05;8.90;99.90
27270;DHT22;14769;56.934;24.176;2022-09-27T05:44:07;8.90;99.90
27270;DHT22;14769;56.934;24.176;2022-09-27T05:45:09;9.00;99.90
27270;DHT22;14769;56.934;24.176;2022-09-27T05:46:11;9.00;99.90
27270;DHT22;14769;56.934;24.176;2022-09-27T05:47:14;9.00;99.90
27270;DHT22;14769;56.934;24.176;2022-09-27T05:48:20;9.00;99.90
27270;DHT22;14769;56.934;24.176;2022-09-27T05:49:27;9.10;99.90
27270;DHT22;14769;56.934;24.176;2022-09-27T05:50:29;9.10;99.90
27270;DHT22;14769;56.934;24.176;2022-09-27T05:51:31;9.10;99.90
27270;DHT22;14769;56.934;24.176;2022-09-27T05:52:36;9.20;99.90
27270;DHT22;14769;56.934;24.176;2022-09-27T05:53:40;9.20;99.90
27270;DHT22;14769;56.934;24.176;2022-09-27T05:54:56;9.20;99.90
27270;DHT22;14769;56.934;24.176;2022-09-27T05:56:02;9.20;99.90
27270;DHT22;14769;56.934;24.176;2022-09-27T05:57:05;9.20;99.90
27270;DHT22;14769;56.934;24.176;2022-09-27T05:58:09;9.20;99.90
27270;DHT22;14769;56.934;24.176;2022-09-27T05:59:23;9.30;99.90
27270;DHT22;14769;56.934;24.176;2022-09-27T06:00:27;9.30;99.90
27270;DHT22;14769;56.934;24.176;2022-09-27T06:01:29;9.30;99.90
27270;DHT22;14769;56.934;24.176;2022-09-27T06:02:31;9.30;99.90
27270;DHT22;14769;56.934;24.176;2022-09-27T06:03:36;9.30;99.90
27270;DHT22;14769;56.934;24.176;2022-09-27T06:04:38;9.40;99.90
27270;DHT22;14769;56.934;24.176;2022-09-27T06:05:40;9.40;99.90
27270;DHT22;14769;56.934;24.176;2022-09-27T06:06:42;9.50;99.90
27270;DHT22;14769;56.934;24.176;2022-09-27T06:07:44;9.50;99.90
27270;DHT22;14769;56.934;24.176;2022-09-27T06:08:50;9.50;99.90
27270;DHT22;14769;56.934;24.176;2022-09-27T06:09:52;9.50;99.90
27270;DHT22;14769;56.934;24.176;2022-09-27T06:11:00;9.60;99.90
27270;DHT22;14769;56.934;24.176;2022-09-27T06:12:03;9.60;99.90
27270;DHT22;14769;56.934;24.176;2022-09-27T06:13:06;9.60;99.90
27270;DHT22;14769;56.934;24.176;2022-09-27T06:14:10;9.70;99.90
27270;DHT22;14769;56.934;24.176;2022-09-27T06:15:11;9.70;99.90
27270;DHT22;14769;56.934;24.176;2022-09-27T06:16:13;9.70;99.90
27270;DHT22;14769;56.934;24.176;2022-09-27T06:17:16;9.70;99.90
27270;DHT22;14769;56.934;24.176;2022-09-27T06:18:26;9.80;99.90
27270;DHT22;14769;56.934;24.176;2022-09-27T06:19:30;9.80;99.90
27270;DHT22;14769;56.934;24.176;2022-09-27T06:20:33;9.80;99.90
27270;DHT22;14769;56.934;24.176;2022-09-27T06:21:44;9.90;99.90
27270;DHT22;14769;56.934;24.176;2022-09-27T06:22:48;9.90;99.90
27270;DHT22;14769;56.934;24.176;2022-09-27T06:23:52;10.00;99.90
27270;DHT22;14769;56.934;24.176;2022-09-27T06:25:03;10.00;99.90
27270;DHT22;14769;56.934;24.176;2022-09-27T06:26:40;10.00;99.90
27270;DHT22;14769;56.934;24.176;2022-09-27T06:27:42;10.00;99.90
27270;DHT22;14769;56.934;24.176;2022-09-27T06:28:44;10.00;99.90
27270;DHT22;14769;56.934;24.176;2022-09-27T06:29:49;10.10;99.90
27270;DHT22;14769;56.934;24.176;2022-09-27T06:30:51;10.10;99.90
27270;DHT22;14769;56.934;24.176;2022-09-27T06:31:55;10.10;99.90
27270;DHT22;14769;56.934;24.176;2022-09-27T06:32:59;10.10;99.90
27270;DHT22;14769;56.934;24.176;2022-09-27T06:34:01;10.20;99.90
27270;DHT22;14769;56.934;24.176;2022-09-27T06:35:04;10.30;99.90
27270;DHT22;14769;56.934;24.176;2022-09-27T06:36:07;10.40;99.90
27270;DHT22;14769;56.934;24.176;2022-09-27T06:37:11;10.60;99.90
27270;DHT22;14769;56.934;24.176;2022-09-27T06:38:16;10.70;99.90
27270;DHT22;14769;56.934;24.176;2022-09-27T06:39:20;10.70;99.90
27270;DHT22;14769;56.934;24.176;2022-09-27T06:40:23;10.70;99.90
27270;DHT22;14769;56.934;24.176;2022-09-27T06:41:27;10.70;99.90
27270;DHT22;14769;56.934;24.176;2022-09-27T06:42:28;10.70;99.90
27270;DHT22;14769;56.934;24.176;2022-09-27T06:43:31;10.70;99.90
27270;DHT22;14769;56.934;24.176;2022-09-27T06:44:34;10.80;99.90
27270;DHT22;14769;56.934;24.176;2022-09-27T06:45:37;10.80;99.90
27270;DHT22;14769;56.934;24.176;2022-09-27T06:46:47;10.80;99.90
27270;DHT22;14769;56.934;24.176;2022-09-27T06:47:51;10.90;99.90
27270;DHT22;14769;56.934;24.176;2022-09-27T06:48:53;10.90;99.90
27270;DHT22;14769;56.934;24.176;2022-09-27T06:49:57;10.90;99.90
27270;DHT22;14769;56.934;24.176;2022-09-27T06:50:59;10.90;99.90
27270;DHT22;14769;56.934;24.176;2022-09-27T06:52:04;11.00;99.90
27270;DHT22;14769;56.934;24.176;2022-09-27T06:53:08;11.00;99.90
27270;DHT22;14769;56.934;24.176;2022-09-27T06:54:14;11.10;99.90
27270;DHT22;14769;56.934;24.176;2022-09-27T06:55:17;11.10;99.90
27270;DHT22;14769;56.934;24.176;2022-09-27T06:56:20;11.20;99.90
27270;DHT22;14769;56.934;24.176;2022-09-27T06:57:22;11.20;99.90
27270;DHT22;14769;56.934;24.176;2022-09-27T06:58:43;11.30;99.90
27270;DHT22;14769;56.934;24.176;2022-09-27T07:00:04;11.30;99.90
27270;DHT22;14769;56.934;24.176;2022-09-27T07:01:28;11.30;99.90
27270;DHT22;14769;56.934;24.176;2022-09-27T07:02:35;11.40;99.90
27270;DHT22;14769;56.934;24.176;2022-09-27T07:03:51;11.40;99.90
27270;DHT22;14769;56.934;24.176;2022-09-27T07:05:00;11.40;99.90
27270;DHT22;14769;56.934;24.176;2022-09-27T07:06:18;11.50;99.90
27270;DHT22;14769;56.934;24.176;2022-09-27T07:07:27;11.50;99.90
27270;DHT22;14769;56.934;24.176;2022-09-27T07:08:34;11.50;99.90
27270;DHT22;14769;56.934;24.176;2022-09-27T07:09:37;11.60;99.90
27270;DHT22;14769;56.934;24.176;2022-09-27T07:10:41;11.70;99.90
27270;DHT22;14769;56.934;24.176;2022-09-27T07:11:44;11.70;99.90
27270;DHT22;14769;56.934;24.176;2022-09-27T07:12:46;11.80;99.90
27270;DHT22;14769;56.934;24.176;2022-09-27T07:13:49;11.90;99.90
27270;DHT22;14769;56.934;24.176;2022-09-27T07:14:52;12.00;99.90
27270;DHT22;14769;56.934;24.176;2022-09-27T07:15:54;12.00;99.90
27270;DHT22;14769;56.934;24.176;2022-09-27T07:16:56;12.00;99.90
27270;DHT22;14769;56.934;24.176;2022-09-27T07:17:58;12.10;99.90
27270;DHT22;14769;56.934;24.176;2022-09-27T07:19:02;12.10;99.90
27270;DHT22;14769;56.934;24.176;2022-09-27T07:20:05;12.20;99.90
27270;DHT22;14769;56.934;24.176;2022-09-27T07:21:08;12.20;99.90
27270;DHT22;14769;56.934;24.176;2022-09-27T07:22:09;12.30;99.90
27270;DHT22;14769;56.934;24.176;2022-09-27T07:23:11;12.30;99.90
27270;DHT22;14769;56.934;24.176;2022-09-27T07:24:14;12.40;99.90
27270;DHT22;14769;56.934;24.176;2022-09-27T07:25:16;12.50;99.90
27270;DHT22;14769;56.934;24.176;2022-09-27T07:26:18;12.50;99.90
27270;DHT22;14769;56.934;24.176;2022-09-27T07:27:20;12.60;99.90
27270;DHT22;14769;56.934;24.176;2022-09-27T07:28:23;12.60;99.90
27270;DHT22;14769;56.934;24.176;2022-09-27T07:29:24;12.60;99.90
27270;DHT22;14769;56.934;24.176;2022-09-27T07:30:27;12.60;99.90
27270;DHT22;14769;56.934;24.176;2022-09-27T07:31:29;12.70;99.90
27270;DHT22;14769;56.934;24.176;2022-09-27T07:32:31;12.70;99.90
27270;DHT22;14769;56.934;24.176;2022-09-27T07:33:33;12.70;99.90
27270;DHT22;14769;56.934;24.176;2022-09-27T07:34:35;12.80;99.90
27270;DHT22;14769;56.934;24.176;2022-09-27T07:35:40;12.90;99.90
27270;DHT22;14769;56.934;24.176;2022-09-27T07:36:42;12.90;99.90